Terminal Aerodrome Forecast
Issued by NWS

Home | Current Version | Previous Version | Text Only | Print | Product List | Glossary On
Versions: 1 2 3 4 5 6 7 8 9 10 11 12 13 14 15
000
FTUS43 KMPX 291724
TAFRWF
TAF
KRWF 291724Z 2918/3018 35010KT 5SM -SHRA BR SCT012 OVC025
      TEMPO 2918/2921 2SM SHRA BR BKN008 OVC015
     FM292100 34014G22KT 5SM -SHRA SCT008 OVC012
     FM292300 35013G21KT P6SM BKN025 OVC080
     FM300400 34011KT P6SM SCT030 BKN100
     FM300800 35010KT P6SM SCT250=

USA.gov is the U.S. government's official web portal to all federal, state and local government web resources and services.